Time;durP1;ratioP1;P1;durP2;ratioP2;P2;SDS_P1;SDS_P2;PMS_P1;PMS_P2;Temp;Humidity;BMP_temperature;BMP_pressure;BME280_temperature;BME280_humidity;BME280_pressure;Samples;Min_cycle;Max_cycle;Signal;HPM_P1;HPM_P2
2021/11/23 00:01:18;;;;;;;18.73;7.03;;;;;;;2.78;83.68;103236.50;5048671;28;20040;-57
2021/11/23 00:03:43;;;;;;;13.15;6.80;;;;;;;2.70;83.84;103240.50;5047181;28;20024;-56
2021/11/23 00:06:08;;;;;;;15.95;5.65;;;;;;;2.59;84.91;103239.22;5063834;28;20034;-55
2021/11/23 00:08:34;;;;;;;12.30;6.25;;;;;;;2.64;85.67;103237.66;5068207;28;20467;-56
2021/11/23 00:10:59;;;;;;;13.75;6.53;;;;;;;2.65;85.36;103236.84;5053579;28;20048;-57
2021/11/23 00:13:24;;;;;;;21.40;6.72;;;;;;;2.74;85.70;103238.91;5048258;28;20064;-55
2021/11/23 00:15:50;;;;;;;20.65;6.32;;;;;;;2.90;85.63;103235.16;5036579;28;20032;-56
2021/11/23 00:18:15;;;;;;;13.02;5.32;;;;;;;2.99;85.90;103232.91;5027125;28;20032;-56
2021/11/23 00:20:42;;;;;;;13.80;4.55;;;;;;;2.96;85.22;103238.00;5033298;28;20036;-59
2021/11/23 00:23:09;;;;;;;16.55;6.15;;;;;;;2.97;84.94;103242.38;5038662;28;20024;-57
2021/11/23 00:25:34;;;;;;;23.05;6.70;;;;;;;2.90;84.74;103237.75;5041765;28;20025;-56
2021/11/23 00:28:00;;;;;;;18.48;8.55;;;;;;;2.86;84.70;103236.75;5047201;28;20495;-56
2021/11/23 00:30:25;;;;;;;8.73;4.10;;;;;;;2.95;84.92;103244.00;5047003;28;20060;-55
2021/11/23 00:32:53;;;;;;;17.15;7.28;;;;;;;2.98;84.69;103245.88;5048980;28;20088;-54
2021/11/23 00:35:18;;;;;;;13.20;5.60;;;;;;;3.01;85.05;103236.44;5041223;28;20467;-56
2021/11/23 00:37:47;;;;;;;10.20;5.43;;;;;;;3.08;84.95;103237.56;5038316;28;20100;-56
2021/11/23 00:40:12;;;;;;;7.70;5.50;;;;;;;3.13;84.89;103232.53;5027459;28;20029;-55
2021/11/23 00:42:38;;;;;;;13.95;5.28;;;;;;;3.19;84.83;103230.09;5046804;28;20397;-56
2021/11/23 00:45:05;;;;;;;10.35;4.45;;;;;;;3.28;84.73;103230.44;5040573;28;20025;-55
2021/11/23 00:47:30;;;;;;;14.18;4.70;;;;;;;3.41;84.24;103223.06;5044531;28;20784;-58
2021/11/23 00:49:55;;;;;;;12.75;4.38;;;;;;;3.49;84.00;103225.94;5040684;28;20030;-54
2021/11/23 00:52:21;;;;;;;8.70;3.92;;;;;;;3.54;83.96;103226.97;5048553;28;20025;-55
2021/11/23 00:54:46;;;;;;;11.20;3.90;;;;;;;3.65;83.84;103232.56;5045139;28;20032;-55
2021/11/23 00:57:12;;;;;;;10.05;3.38;;;;;;;3.77;83.60;103239.91;5035584;28;20028;-54
2021/11/23 00:59:38;;;;;;;5.43;3.22;;;;;;;3.81;83.79;103244.38;5040518;28;20025;-55
2021/11/23 01:02:04;;;;;;;7.38;2.75;;;;;;;3.88;83.58;103240.25;5047424;28;20036;-57
2021/11/23 01:04:29;;;;;;;12.05;3.60;;;;;;;3.98;83.37;103234.50;5044367;28;20038;-55
2021/11/23 01:06:55;;;;;;;7.55;2.65;;;;;;;4.08;83.20;103232.19;5040002;28;20064;-56
2021/11/23 01:09:20;;;;;;;13.55;3.78;;;;;;;4.15;82.76;103228.91;5043994;28;20049;-56
2021/11/23 01:11:45;;;;;;;13.73;3.47;;;;;;;4.22;82.54;103230.91;5035973;28;20056;-56
2021/11/23 01:14:11;;;;;;;8.60;3.13;;;;;;;4.26;82.11;103230.16;5047274;28;20024;-55
2021/11/23 01:16:37;;;;;;;5.97;3.03;;;;;;;4.33;82.05;103228.63;5037712;28;20048;-56
2021/11/23 01:19:02;;;;;;;8.85;3.97;;;;;;;4.45;81.64;103220.28;5027355;28;20025;-55
2021/11/23 01:21:28;;;;;;;14.95;3.90;;;;;;;4.49;81.33;103219.53;5031560;28;20017;-60
2021/11/23 01:23:54;;;;;;;10.38;3.70;;;;;;;4.55;81.19;103221.47;5048751;28;20025;-61
2021/11/23 01:26:22;;;;;;;12.02;4.95;;;;;;;4.57;81.23;103218.88;5046499;28;20021;-57
2021/11/23 01:28:48;;;;;;;13.07;3.40;;;;;;;4.52;81.64;103216.13;5041879;28;20040;-56
2021/11/23 01:31:13;;;;;;;17.20;5.55;;;;;;;4.47;81.65;103210.78;5028086;28;20018;-55
2021/11/23 01:33:39;;;;;;;7.68;3.28;;;;;;;4.47;81.79;103208.16;5046914;28;20029;-56
2021/11/23 01:36:04;;;;;;;6.80;2.97;;;;;;;4.48;81.96;103209.06;5026559;28;20507;-56
2021/11/23 01:38:31;;;;;;;13.35;4.95;;;;;;;4.45;81.83;103215.06;5036847;28;20029;-56
2021/11/23 01:40:57;;;;;;;8.70;3.67;;;;;;;4.38;82.58;103208.78;5026197;28;20210;-54
2021/11/23 01:43:22;;;;;;;11.82;3.70;;;;;;;4.37;82.90;103212.19;5038555;28;20348;-55
2021/11/23 01:45:48;;;;;;;11.82;5.22;;;;;;;4.36;83.23;103206.97;5046944;28;20013;-55
2021/11/23 01:48:13;;;;;;;9.55;4.22;;;;;;;4.40;83.10;103201.00;5040494;28;20033;-54
2021/11/23 01:50:39;;;;;;;10.27;4.93;;;;;;;4.46;82.52;103211.63;5046608;28;20433;-56
2021/11/23 01:53:06;;;;;;;14.35;5.90;;;;;;;4.41;83.18;103216.69;5038394;28;20422;-55
2021/11/23 01:55:33;;;;;;;20.95;5.30;;;;;;;4.40;83.04;103221.88;5046851;28;20098;-53
2021/11/23 01:57:59;;;;;;;14.45;5.72;;;;;;;4.35;82.94;103219.13;5042846;28;20024;-54
2021/11/23 02:00:24;;;;;;;9.20;3.92;;;;;;;4.48;82.46;103209.94;5035828;28;20100;-55
2021/11/23 02:02:50;;;;;;;10.98;4.20;;;;;;;4.59;82.13;103212.88;5029387;28;20472;-56
2021/11/23 02:05:15;;;;;;;15.18;5.45;;;;;;;4.59;82.72;103206.75;5046206;28;20024;-55
2021/11/23 02:07:41;;;;;;;8.35;3.40;;;;;;;4.62;82.21;103204.22;5044950;28;20879;-57
2021/11/23 02:10:08;;;;;;;13.73;4.05;;;;;;;4.70;82.26;103205.34;5028194;28;20099;-55
2021/11/23 02:12:35;;;;;;;7.00;4.18;;;;;;;4.76;82.01;103196.81;5038712;28;20041;-55
2021/11/23 02:15:01;;;;;;;15.15;4.03;;;;;;;4.79;81.74;103192.53;5111277;22;20095;-55
2021/11/23 02:17:27;;;;;;;15.82;4.72;;;;;;;4.84;81.54;103197.88;5043513;28;20087;-56
2021/11/23 02:19:55;;;;;;;12.18;4.53;;;;;;;4.86;81.67;103201.44;5034392;28;20430;-55
2021/11/23 02:22:22;;;;;;;15.65;5.82;;;;;;;4.92;81.33;103188.56;5046343;28;20013;-55
2021/11/23 02:24:47;;;;;;;13.38;3.80;;;;;;;4.99;81.00;103197.44;5045155;28;20025;-54
2021/11/23 02:27:12;;;;;;;9.02;4.50;;;;;;;4.99;80.91;103192.22;5045182;28;20043;-54
2021/11/23 02:29:38;;;;;;;10.57;3.50;;;;;;;5.06;80.97;103198.50;5043466;28;20020;-54
2021/11/23 02:32:04;;;;;;;7.82;3.28;;;;;;;5.15;80.64;103197.88;5043427;28;20372;-55
2021/11/23 02:34:29;;;;;;;11.98;3.45;;;;;;;5.20;80.29;103191.03;5023378;28;20021;-54
2021/11/23 02:36:55;;;;;;;13.00;4.38;;;;;;;5.19;80.55;103189.25;5035113;28;20033;-54
2021/11/23 02:39:21;;;;;;;9.45;4.25;;;;;;;5.29;80.39;103180.81;5027541;28;20026;-56
2021/11/23 02:41:46;;;;;;;11.05;4.20;;;;;;;5.36;80.11;103186.22;5036502;28;20175;-55
2021/11/23 02:44:12;;;;;;;11.93;4.57;;;;;;;5.40;80.21;103173.25;5017459;28;20438;-56
2021/11/23 02:46:37;;;;;;;6.72;3.28;;;;;;;5.40;80.23;103174.97;5029334;28;20503;-56
2021/11/23 02:49:03;;;;;;;7.38;3.47;;;;;;;5.42;80.06;103174.16;5045051;28;20040;-57
2021/11/23 02:51:30;;;;;;;11.55;3.33;;;;;;;5.43;80.16;103173.34;5044217;28;20025;-54
2021/11/23 02:53:56;;;;;;;7.72;3.05;;;;;;;5.44;80.42;103166.34;5041635;28;20024;-55
2021/11/23 02:56:21;;;;;;;8.73;2.70;;;;;;;5.41;80.52;103163.66;5027524;28;20026;-60
2021/11/23 02:58:49;;;;;;;14.90;4.43;;;;;;;5.44;80.75;103161.13;5045366;28;20028;-56
2021/11/23 03:01:17;;;;;;;11.23;4.07;;;;;;;5.44;80.98;103166.34;4995646;28;20182;-55
2021/11/23 03:03:43;;;;;;;5.68;2.50;;;;;;;5.43;81.25;103161.97;5032189;28;20476;-53
2021/11/23 03:06:12;;;;;;;6.22;2.65;;;;;;;5.50;81.08;103157.78;5029318;28;20022;-56
2021/11/23 03:08:38;;;;;;;5.82;3.22;;;;;;;5.53;81.23;103155.25;5025055;28;20113;-53
2021/11/23 03:11:03;;;;;;;11.35;3.78;;;;;;;5.54;81.52;103151.81;5042825;28;20250;-52
2021/11/23 03:13:28;;;;;;;8.20;2.53;;;;;;;5.50;81.42;103156.06;5041843;28;20487;-51
2021/11/23 03:15:54;;;;;;;11.23;4.43;;;;;;;5.44;82.04;103150.66;5028860;28;20029;-55
2021/11/23 03:18:19;;;;;;;11.35;3.60;;;;;;;5.41;82.17;103156.72;5043813;28;20033;-52
2021/11/23 03:20:45;;;;;;;10.45;2.50;;;;;;;5.50;81.93;103150.81;5044954;28;20036;-58
2021/11/23 03:23:11;;;;;;;8.45;2.22;;;;;;;5.57;82.03;103157.97;5044565;28;20044;-57
2021/11/23 03:25:36;;;;;;;10.25;3.50;;;;;;;5.63;81.61;103153.75;5031932;28;20475;-54
2021/11/23 03:28:02;;;;;;;5.82;3.03;;;;;;;5.60;81.85;103159.78;5040898;28;20032;-56
2021/11/23 03:30:29;;;;;;;10.82;3.33;;;;;;;5.64;81.44;103161.63;5039243;28;20025;-53
2021/11/23 03:32:55;;;;;;;8.93;3.47;;;;;;;5.63;81.67;103157.22;5043124;28;20025;-56
2021/11/23 03:35:22;;;;;;;8.60;2.22;;;;;;;5.67;81.64;103156.47;5036175;28;20037;-53
2021/11/23 03:37:47;;;;;;;15.65;3.45;;;;;;;5.68;81.56;103153.00;5044440;28;20037;-54
2021/11/23 03:40:14;;;;;;;3.92;1.80;;;;;;;5.72;81.64;103153.09;5038290;28;20025;-53
2021/11/23 03:42:39;;;;;;;10.35;3.10;;;;;;;5.79;81.21;103153.28;5045749;28;20047;-57
2021/11/23 03:45:06;;;;;;;10.43;2.97;;;;;;;5.77;81.48;103152.34;5044434;28;20398;-55
2021/11/23 03:47:33;;;;;;;18.85;2.75;;;;;;;5.79;81.23;103158.50;5039330;28;20386;-54
2021/11/23 03:49:59;;;;;;;5.78;2.28;;;;;;;5.83;81.41;103151.59;5030530;28;20430;-54
2021/11/23 03:52:25;;;;;;;10.20;2.88;;;;;;;5.84;81.38;103153.34;5045954;28;20067;-61
2021/11/23 03:54:51;;;;;;;8.68;1.77;;;;;;;5.87;81.19;103140.34;5044870;28;20044;-54
2021/11/23 03:57:17;;;;;;;8.55;1.83;;;;;;;5.92;81.11;103143.06;5045892;28;20021;-55
2021/11/23 03:59:47;;;;;;;11.88;3.10;;;;;;;5.93;81.02;103142.25;5032338;28;20028;-55
2021/11/23 04:02:13;;;;;;;8.98;1.95;;;;;;;5.94;81.05;103133.53;5034562;28;20039;-58
2021/11/23 04:04:38;;;;;;;7.75;2.30;;;;;;;5.91;81.67;103149.16;5047064;28;20100;-56
2021/11/23 04:07:03;;;;;;;12.95;2.75;;;;;;;5.94;81.33;103144.00;5048475;28;20751;-55
2021/11/23 04:09:29;;;;;;;8.18;2.38;;;;;;;5.92;81.49;103140.47;5041714;28;20060;-56
2021/11/23 04:11:54;;;;;;;7.05;2.30;;;;;;;5.94;81.48;103139.63;5029810;28;20521;-57
2021/11/23 04:14:19;;;;;;;9.88;2.70;;;;;;;6.01;81.20;103150.25;5048450;28;20045;-56
2021/11/23 04:16:45;;;;;;;8.98;3.00;;;;;;;6.09;80.76;103146.13;5048512;28;20395;-58
2021/11/23 04:19:10;;;;;;;6.85;2.67;;;;;;;6.12;80.71;103153.16;5048178;28;20116;-56
2021/11/23 04:21:35;;;;;;;8.10;2.78;;;;;;;6.10;80.92;103149.59;5038401;28;20198;-59
2021/11/23 04:24:01;;;;;;;9.82;3.10;;;;;;;6.05;80.84;103147.78;5029497;28;20056;-54
2021/11/23 04:26:26;;;;;;;7.25;3.15;;;;;;;6.11;81.16;103146.16;5035938;28;20108;-58
2021/11/23 04:28:52;;;;;;;9.60;2.63;;;;;;;6.12;81.24;103132.19;5044443;28;20115;-56
2021/11/23 04:31:17;;;;;;;11.50;1.98;;;;;;;6.11;81.17;103131.31;5039225;28;20037;-52
2021/11/23 04:33:42;;;;;;;6.03;2.45;;;;;;;6.08;81.56;103141.72;5047279;28;20356;-57
2021/11/23 04:36:08;;;;;;;7.15;1.80;;;;;;;6.06;81.71;103139.06;5050282;28;20021;-57
2021/11/23 04:38:33;;;;;;;9.32;2.45;;;;;;;6.12;81.59;103140.94;5041094;28;20053;-56
2021/11/23 04:40:59;;;;;;;7.28;2.10;;;;;;;6.17;81.47;103138.44;5035117;28;20029;-55
2021/11/23 04:43:24;;;;;;;5.85;1.88;;;;;;;6.22;81.38;103147.25;5040109;28;20395;-54
2021/11/23 04:45:49;;;;;;;7.10;2.78;;;;;;;6.24;81.66;103142.06;5043029;28;20668;-56
2021/11/23 04:48:15;;;;;;;9.60;2.88;;;;;;;6.26;81.53;103136.00;5047431;28;20029;-56
2021/11/23 04:50:40;;;;;;;10.85;1.85;;;;;;;6.32;81.54;103137.84;5029302;28;20045;-55
2021/11/23 04:53:08;;;;;;;2.85;1.70;;;;;;;6.39;81.50;103123.16;5044826;28;20021;-57
2021/11/23 04:55:33;;;;;;;4.90;2.00;;;;;;;6.39;81.78;103131.03;5046150;28;20044;-54
2021/11/23 04:57:58;;;;;;;5.38;1.90;;;;;;;6.38;82.00;103119.66;5047581;28;20029;-55
2021/11/23 05:00:24;;;;;;;7.43;1.70;;;;;;;6.38;82.14;103121.41;5048867;28;20571;-55
2021/11/23 05:02:49;;;;;;;3.40;1.60;;;;;;;6.33;82.44;103116.06;5047347;28;20032;-56
2021/11/23 05:05:15;;;;;;;6.32;1.73;;;;;;;6.28;82.85;103125.56;5047920;28;20025;-59
2021/11/23 05:07:42;;;;;;;9.15;2.25;;;;;;;6.28;83.04;103120.31;5045182;28;20036;-56
2021/11/23 05:10:09;;;;;;;6.88;1.45;;;;;;;6.29;83.16;103119.50;5048019;28;20029;-56
2021/11/23 05:12:35;;;;;;;12.10;2.15;;;;;;;6.34;83.21;103116.94;5048032;28;20159;-56
2021/11/23 05:15:01;;;;;;;6.57;1.67;;;;;;;6.31;83.57;103118.66;5046332;28;20112;-56
2021/11/23 05:17:26;;;;;;;8.90;2.55;;;;;;;6.31;83.78;103118.66;5047924;28;20029;-57
2021/11/23 05:19:51;;;;;;;9.23;2.28;;;;;;;6.35;83.76;103126.59;5047697;28;20032;-55
2021/11/23 05:22:17;;;;;;;4.82;1.27;;;;;;;6.36;83.62;103116.13;5047663;28;20487;-56
2021/11/23 05:24:42;;;;;;;6.05;1.33;;;;;;;6.39;83.52;103116.22;5048126;28;20021;-56
2021/11/23 05:27:08;;;;;;;6.00;1.83;;;;;;;6.42;83.56;103116.25;5047568;28;20463;-57
2021/11/23 05:29:34;;;;;;;11.63;1.85;;;;;;;6.44;83.71;103118.88;5047658;28;20043;-56
2021/11/23 05:31:59;;;;;;;7.30;1.63;;;;;;;6.38;84.10;103114.41;5047639;28;20036;-55
2021/11/23 05:34:25;;;;;;;7.57;1.80;;;;;;;6.37;84.31;103117.00;5047417;28;20036;-55
2021/11/23 05:36:50;;;;;;;3.13;1.92;;;;;;;6.41;84.51;103124.09;5045318;28;20533;-56
2021/11/23 05:39:15;;;;;;;8.52;2.10;;;;;;;6.43;84.94;103111.91;5047715;28;20037;-55
2021/11/23 05:41:41;;;;;;;5.00;2.08;;;;;;;6.44;84.82;103113.66;5045511;28;20021;-55
2021/11/23 05:44:07;;;;;;;8.00;2.30;;;;;;;6.41;85.09;103113.63;5043530;28;20037;-58
2021/11/23 05:46:33;;;;;;;7.93;2.30;;;;;;;6.40;84.86;103117.97;5042393;28;20034;-59
2021/11/23 05:48:58;;;;;;;10.82;2.92;;;;;;;6.36;84.99;103115.25;5045198;28;20039;-55
2021/11/23 05:51:24;;;;;;;11.40;2.67;;;;;;;6.32;84.88;103114.28;5047827;28;20475;-55
2021/11/23 05:53:49;;;;;;;8.88;2.25;;;;;;;6.27;85.14;103121.19;5038376;28;20118;-57
2021/11/23 05:56:15;;;;;;;7.40;2.00;;;;;;;6.23;85.14;103127.22;5029238;28;20432;-55
2021/11/23 05:58:41;;;;;;;9.15;2.28;;;;;;;6.31;84.98;103113.44;5025673;28;20456;-54
2021/11/23 06:01:06;;;;;;;11.38;2.75;;;;;;;6.34;85.06;103112.59;5038542;28;20475;-55
2021/11/23 06:03:32;;;;;;;8.60;2.30;;;;;;;6.41;84.80;103116.25;5039337;28;20123;-53
2021/11/23 06:05:58;;;;;;;7.85;2.10;;;;;;;6.43;84.71;103111.91;5027159;28;20028;-55
2021/11/23 06:08:23;;;;;;;8.93;2.70;;;;;;;6.43;84.62;103112.78;5047163;28;20072;-61
2021/11/23 06:10:48;;;;;;;3.58;2.03;;;;;;;6.48;84.75;103117.22;5045317;28;20029;-56
2021/11/23 06:13:15;;;;;;;4.53;1.88;;;;;;;6.42;84.80;103115.38;5039020;28;20029;-56
2021/11/23 06:15:44;;;;;;;6.07;2.38;;;;;;;6.48;84.52;103115.50;5039854;28;20028;-56
2021/11/23 06:18:13;;;;;;;9.10;2.35;;;;;;;6.51;84.96;103115.56;5041606;28;20030;-58
2021/11/23 06:20:38;;;;;;;14.80;2.60;;;;;;;6.51;84.77;103117.28;5035458;28;20119;-55
2021/11/23 06:23:03;;;;;;;3.88;1.45;;;;;;;6.44;84.72;103117.16;5017177;28;20488;-57
2021/11/23 06:25:29;;;;;;;6.18;2.13;;;;;;;6.35;84.80;103122.22;5036894;28;20040;-56
2021/11/23 06:27:55;;;;;;;8.48;2.58;;;;;;;6.36;85.51;103125.72;5037682;28;20118;-53
2021/11/23 06:30:21;;;;;;;9.13;1.95;;;;;;;6.36;85.72;103123.09;5040797;28;20036;-57
2021/11/23 06:32:47;;;;;;;7.35;2.08;;;;;;;6.35;85.84;103123.97;5038125;28;20061;-58
2021/11/23 06:35:12;;;;;;;6.35;2.22;;;;;;;6.34;86.02;103130.03;5027524;28;20484;-57
2021/11/23 06:37:38;;;;;;;11.73;2.85;;;;;;;6.39;85.87;103131.03;5016732;28;20110;-56
2021/11/23 06:40:05;;;;;;;6.75;1.80;;;;;;;6.45;85.73;103132.03;5048802;28;20111;-56
2021/11/23 06:42:30;;;;;;;10.43;2.33;;;;;;;6.52;85.57;103138.28;5055429;28;20024;-58
2021/11/23 06:44:55;;;;;;;7.85;2.80;;;;;;;6.59;85.27;103138.41;5044999;28;20087;-56
2021/11/23 06:47:21;;;;;;;11.10;2.85;;;;;;;6.63;84.95;103135.00;5045412;28;20302;-57
2021/11/23 06:49:46;;;;;;;5.95;2.42;;;;;;;6.68;84.85;103133.34;5044170;28;20041;-54
2021/11/23 06:52:12;;;;;;;12.65;4.03;;;;;;;6.68;84.95;103144.69;5046391;28;20303;-56
2021/11/23 06:54:37;;;;;;;8.95;2.58;;;;;;;6.69;85.04;103141.22;5044624;28;20461;-60
2021/11/23 06:57:03;;;;;;;12.27;3.35;;;;;;;6.63;85.11;103143.75;5045862;28;20033;-54
2021/11/23 06:59:28;;;;;;;7.80;2.20;;;;;;;6.59;85.47;103141.91;5045685;28;20116;-58
2021/11/23 07:01:53;;;;;;;7.43;1.70;;;;;;;6.61;85.43;103137.59;5044179;28;20067;-55
2021/11/23 07:04:19;;;;;;;8.60;2.47;;;;;;;6.61;85.62;103149.78;5031701;28;20502;-57
2021/11/23 07:06:46;;;;;;;12.25;2.47;;;;;;;6.59;85.75;103159.38;5030037;28;20151;-59
2021/11/23 07:09:12;;;;;;;8.43;2.25;;;;;;;6.61;85.72;103150.69;5037192;28;20050;-55
2021/11/23 07:11:37;;;;;;;11.27;2.92;;;;;;;6.60;85.86;103156.78;5032924;28;20481;-57
2021/11/23 07:14:06;;;;;;;15.15;3.40;;;;;;;6.55;86.02;103161.94;5027878;28;20078;-58
2021/11/23 07:16:33;;;;;;;15.30;3.33;;;;;;;6.52;85.77;103158.34;5030193;28;20059;-55
2021/11/23 07:18:59;;;;;;;9.38;2.72;;;;;;;6.45;85.68;103170.44;5043552;28;20021;-56
2021/11/23 07:21:24;;;;;;;7.20;2.10;;;;;;;6.38;85.78;103165.94;5045941;28;20104;-60
2021/11/23 07:23:50;;;;;;;7.43;1.95;;;;;;;6.35;86.18;103171.09;5044309;28;20119;-58
2021/11/23 07:26:15;;;;;;;11.18;2.55;;;;;;;6.32;86.45;103162.31;5045733;28;20013;-56
2021/11/23 07:28:40;;;;;;;7.80;2.80;;;;;;;6.29;86.79;103170.09;5045268;28;20029;-58
2021/11/23 07:31:05;;;;;;;5.85;2.55;;;;;;;6.29;86.95;103162.25;5045084;28;20106;-56
2021/11/23 07:33:31;;;;;;;10.73;2.58;;;;;;;6.32;87.01;103164.03;5044130;28;20497;-61
2021/11/23 07:35:56;;;;;;;7.53;3.22;;;;;;;6.34;87.24;103164.06;5045611;28;20480;-57
2021/11/23 07:38:21;;;;;;;15.45;3.80;;;;;;;6.38;87.37;103171.16;5048108;28;20537;-58
2021/11/23 07:40:47;;;;;;;9.23;4.55;;;;;;;6.42;87.33;103173.00;5045058;28;20032;-56
2021/11/23 07:43:12;;;;;;;15.23;4.57;;;;;;;6.42;87.11;103178.22;5047285;28;20025;-58
2021/11/23 07:45:39;;;;;;;12.27;4.57;;;;;;;6.44;86.82;103179.13;5037668;28;20032;-58
2021/11/23 07:48:05;;;;;;;12.98;4.82;;;;;;;6.48;87.05;103170.50;5027337;28;20037;-56
2021/11/23 07:50:30;;;;;;;9.48;2.78;;;;;;;6.56;86.75;103173.25;5032160;28;20021;-57
2021/11/23 07:52:55;;;;;;;16.65;6.00;;;;;;;6.61;86.19;103171.63;5048701;28;20029;-56
2021/11/23 07:55:21;;;;;;;20.40;7.43;;;;;;;6.73;86.37;103177.97;5033737;28;20358;-54
2021/11/23 07:57:46;;;;;;;15.82;5.75;;;;;;;6.82;86.33;103184.28;5054675;28;20036;-57
2021/11/23 08:00:12;;;;;;;11.32;4.13;;;;;;;6.83;85.85;103183.44;5056346;28;20056;-57
2021/11/23 08:02:37;;;;;;;9.35;4.28;;;;;;;6.83;85.40;103183.44;5058010;28;20031;-57
2021/11/23 08:05:03;;;;;;;15.55;4.82;;;;;;;6.82;85.22;103179.06;5039100;28;20060;-60
2021/11/23 08:07:30;;;;;;;14.18;4.60;;;;;;;6.86;85.61;103189.59;5060053;28;20036;-58
2021/11/23 08:09:55;;;;;;;16.73;4.72;;;;;;;6.89;85.92;103195.75;5050107;28;20052;-57
2021/11/23 08:12:21;;;;;;;10.30;4.60;;;;;;;6.91;85.30;103190.56;5059147;28;20115;-58
2021/11/23 08:14:46;;;;;;;14.38;4.55;;;;;;;6.90;85.09;103199.28;5055989;28;20044;-55
2021/11/23 08:17:11;;;;;;;11.52;3.78;;;;;;;6.97;85.50;103198.53;5058626;28;20016;-55
2021/11/23 08:19:37;;;;;;;8.18;2.72;;;;;;;7.16;84.88;103202.41;5057048;28;20544;-57
2021/11/23 08:22:02;;;;;;;14.57;3.63;;;;;;;7.32;84.63;103200.94;5055669;28;20005;-54
2021/11/23 08:24:27;;;;;;;13.20;3.05;;;;;;;7.41;84.68;103207.22;5058847;28;20151;-55
2021/11/23 08:26:56;;;;;;;8.25;2.47;;;;;;;7.54;84.14;103206.56;5056799;28;20029;-52
2021/11/23 08:29:22;;;;;;;13.57;4.18;;;;;;;7.61;84.21;103204.06;5049354;28;20088;-55
2021/11/23 08:31:47;;;;;;;19.13;3.53;;;;;;;7.67;84.16;103204.13;5034406;28;20034;-56
2021/11/23 08:34:13;;;;;;;11.95;2.88;;;;;;;7.71;84.05;103203.34;5048448;28;20075;-54
2021/11/23 08:36:39;;;;;;;17.58;3.20;;;;;;;7.77;83.78;103211.28;5047295;28;20029;-51
2021/11/23 08:39:05;;;;;;;10.25;3.03;;;;;;;7.84;83.58;103205.31;5053076;28;20107;-52
2021/11/23 08:41:30;;;;;;;15.82;3.17;;;;;;;7.85;83.74;103211.41;5053281;28;20013;-54
2021/11/23 08:43:55;;;;;;;4.95;2.08;;;;;;;7.94;83.52;103208.94;5026906;28;20039;-53
2021/11/23 08:46:21;;;;;;;5.28;2.35;;;;;;;8.06;83.20;103205.63;5018654;28;20055;-53
2021/11/23 08:48:46;;;;;;;5.70;1.88;;;;;;;8.20;82.58;103207.56;5017828;28;20037;-55
2021/11/23 08:51:16;;;;;;;9.93;2.20;;;;;;;8.23;82.68;103207.63;5020786;28;20044;-53
2021/11/23 08:53:41;;;;;;;9.05;2.70;;;;;;;8.26;82.55;103207.66;5014791;28;20052;-55
2021/11/23 08:56:08;;;;;;;12.13;3.25;;;;;;;8.28;82.69;103216.44;5003877;28;20492;-54
2021/11/23 08:58:35;;;;;;;16.52;3.80;;;;;;;8.27;83.07;103219.94;5014571;28;20018;-56
2021/11/23 09:01:00;;;;;;;11.25;3.65;;;;;;;8.26;83.11;103215.53;5023894;28;20115;-55
2021/11/23 09:03:26;;;;;;;12.65;3.67;;;;;;;8.25;83.01;103221.63;5022509;28;20403;-55
2021/11/23 09:05:52;;;;;;;23.13;3.80;;;;;;;8.23;83.08;103223.38;5017830;28;20025;-55
2021/11/23 09:08:18;;;;;;;11.93;2.35;;;;;;;8.33;81.92;103230.53;5005376;28;20044;-54
2021/11/23 09:10:43;;;;;;;8.68;2.60;;;;;;;8.38;81.70;103229.69;5005831;28;20029;-56
2021/11/23 09:13:09;;;;;;;11.88;2.40;;;;;;;8.33;81.84;103217.38;5022553;28;20029;-57
2021/11/23 09:15:35;;;;;;;8.63;2.72;;;;;;;8.39;81.64;103223.56;5015623;28;20312;-55
2021/11/23 09:18:01;;;;;;;9.45;2.78;;;;;;;8.42;81.60;103224.50;5014864;28;20162;-54
2021/11/23 09:20:34;;;;;;;9.23;2.63;;;;;;;8.49;81.42;103229.84;5020014;28;20039;-54
2021/11/23 09:23:07;;;;;;;10.85;2.35;;;;;;;8.52;81.02;103224.66;5023650;28;20368;-54
2021/11/23 09:25:33;;;;;;;8.07;2.35;;;;;;;8.53;81.38;103234.28;5024722;28;20017;-53
2021/11/23 09:28:00;;;;;;;17.85;2.33;;;;;;;8.58;81.73;103230.88;5007819;28;20472;-55
2021/11/23 09:30:26;;;;;;;11.32;2.70;;;;;;;8.70;80.81;103230.16;5024102;28;20013;-53
2021/11/23 09:32:52;;;;;;;7.57;2.15;;;;;;;8.63;81.06;103233.56;5007219;28;20029;-54
2021/11/23 09:35:19;;;;;;;6.55;1.58;;;;;;;8.75;80.66;103227.59;5025018;28;20613;-57
2021/11/23 09:37:44;;;;;;;5.28;1.48;;;;;;;8.81;80.38;103235.56;5022922;28;20441;-58
2021/11/23 09:40:10;;;;;;;5.35;1.90;;;;;;;8.76;80.78;103233.75;5023862;28;20020;-53
2021/11/23 09:42:35;;;;;;;12.77;1.95;;;;;;;8.76;80.66;103233.75;5024162;28;20041;-55
2021/11/23 09:45:03;;;;;;;13.60;2.28;;;;;;;8.71;80.83;103225.78;5006056;28;20041;-61
2021/11/23 09:47:29;;;;;;;16.92;2.08;;;;;;;8.58;81.79;103240.53;5005144;28;20022;-55
2021/11/23 09:49:58;;;;;;;10.95;2.50;;;;;;;8.56;81.99;103230.00;5036612;28;20489;-55
2021/11/23 09:52:23;;;;;;;12.02;2.55;;;;;;;8.51;82.08;103229.00;5046114;28;20613;-56
2021/11/23 09:54:49;;;;;;;10.18;2.33;;;;;;;8.54;82.19;103234.34;5054864;28;20039;-55
2021/11/23 09:57:14;;;;;;;7.55;2.28;;;;;;;8.56;82.28;103232.63;5055328;28;20033;-52
2021/11/23 09:59:40;;;;;;;8.88;2.05;;;;;;;8.59;82.08;103226.53;5060823;28;20012;-54
2021/11/23 10:02:05;;;;;;;13.73;3.10;;;;;;;8.70;82.05;103224.03;5061223;28;20090;-53
2021/11/23 10:04:31;;;;;;;7.90;2.08;;;;;;;8.89;80.91;103225.13;5048079;28;20025;-55
2021/11/23 10:07:08;;;;;;;5.72;2.33;;;;;;;9.07;80.55;103221.84;5046083;28;20511;-63
2021/11/23 10:09:44;;;;;;;14.98;3.20;;;;;;;9.36;79.54;103220.34;5047607;28;20036;-57
2021/11/23 10:12:14;;;;;;;5.28;2.47;;;;;;;9.53;78.47;103228.41;5027603;28;20644;-60
2021/11/23 10:15:01;;;;;;;12.05;3.10;;;;;;;9.68;77.73;103217.13;5044596;28;20041;-56
2021/11/23 10:17:26;;;;;;;12.82;2.45;;;;;;;9.81;77.03;103215.47;5011307;28;20069;-55
2021/11/23 10:19:52;;;;;;;8.13;2.63;;;;;;;9.73;76.71;103219.81;5046225;28;20411;-62
2021/11/23 10:22:37;;;;;;;5.80;2.20;;;;;;;9.71;76.95;103221.53;5045631;28;20032;-54
2021/11/23 10:25:07;;;;;;;8.93;2.90;;;;;;;9.84;76.36;103218.13;5031387;28;20511;-55
2021/11/23 10:27:33;;;;;;;11.38;2.03;;;;;;;9.68;76.30;103216.25;5026592;28;20018;-56
2021/11/23 10:30:00;;;;;;;3.20;1.60;;;;;;;9.66;76.12;103218.00;5044924;28;20395;-57
2021/11/23 10:32:42;;;;;;;7.00;2.47;;;;;;;9.81;75.71;103214.59;5045632;28;20131;-57
2021/11/23 10:35:12;;;;;;;9.15;2.47;;;;;;;10.04;75.07;103222.66;5043854;28;20033;-59
2021/11/23 10:37:38;;;;;;;10.60;3.40;;;;;;;10.02;75.20;103220.91;5046223;28;20028;-54
2021/11/23 10:40:12;;;;;;;11.20;2.80;;;;;;;10.24;74.92;103216.63;5044832;28;20118;-55
2021/11/23 10:42:37;;;;;;;7.63;2.67;;;;;;;10.36;74.68;103213.19;5045617;28;20036;-58
2021/11/23 10:45:09;;;;;;;5.18;2.10;;;;;;;10.47;74.10;103210.63;5045501;28;20410;-57
2021/11/23 10:47:39;;;;;;;8.48;2.85;;;;;;;10.50;73.79;103205.38;5036755;28;20330;-56
2021/11/23 10:50:07;;;;;;;9.20;2.70;;;;;;;10.38;74.76;103213.19;5036750;28;20052;-56
2021/11/23 10:52:41;;;;;;;11.43;2.30;;;;;;;10.41;74.84;103200.03;5053239;28;20187;-56
2021/11/23 10:55:27;;;;;;;8.35;2.03;;;;;;;10.38;74.31;103202.66;5031930;28;20048;-60
2021/11/23 10:57:54;;;;;;;12.30;2.15;;;;;;;10.46;74.20;103206.22;5038530;28;20728;-55
2021/11/23 11:00:21;;;;;;;7.57;2.10;;;;;;;10.48;74.27;103201.84;5038068;28;20037;-54
2021/11/23 11:02:47;;;;;;;9.10;2.50;;;;;;;10.57;73.74;103204.50;5043802;28;20035;-57
2021/11/23 11:05:15;;;;;;;8.77;2.45;;;;;;;10.67;73.52;103197.53;5045416;28;20112;-56
2021/11/23 11:07:40;;;;;;;5.72;2.17;;;;;;;10.66;73.63;103197.53;5025138;28;20038;-58
2021/11/23 11:10:07;;;;;;;4.93;2.40;;;;;;;10.71;73.67;103198.41;5025507;28;20228;-55
2021/11/23 11:12:33;;;;;;;6.68;2.20;;;;;;;10.92;72.38;103200.25;5024283;28;20029;-55
2021/11/23 11:15:01;;;;;;;10.15;2.67;;;;;;;10.87;72.35;103197.59;5031031;28;20044;-55
2021/11/23 11:17:27;;;;;;;6.90;2.58;;;;;;;11.05;71.63;103195.00;5050130;28;20395;-56
2021/11/23 11:19:55;;;;;;;9.93;2.17;;;;;;;11.24;71.25;103194.16;5043641;28;20032;-55
2021/11/23 11:22:23;;;;;;;7.90;2.30;;;;;;;11.15;71.65;103188.88;5056237;28;20047;-54
2021/11/23 11:25:02;;;;;;;4.80;2.10;;;;;;;11.14;71.65;103184.47;5056445;28;20482;-56